sensor_id;sensor_type;location;lat;lon;timestamp;P1;durP1;ratioP1;P2;durP2;ratioP2
54787;SDS011;59598;48.112;16.280;2023-02-03T00:02:15;3.35;;;2.40;;
54787;SDS011;59598;48.112;16.280;2023-02-03T00:04:46;5.78;;;3.35;;
54787;SDS011;59598;48.112;16.280;2023-02-03T00:07:20;1.98;;;1.88;;
54787;SDS011;59598;48.112;16.280;2023-02-03T00:09:54;2.60;;;2.20;;
54787;SDS011;59598;48.112;16.280;2023-02-03T00:12:28;3.58;;;2.60;;
54787;SDS011;59598;48.112;16.280;2023-02-03T00:14:59;1.92;;;1.73;;
54787;SDS011;59598;48.112;16.280;2023-02-03T00:17:31;2.20;;;1.92;;
54787;SDS011;59598;48.112;16.280;2023-02-03T00:22:36;2.90;;;2.17;;
54787;SDS011;59598;48.112;16.280;2023-02-03T00:25:07;2.78;;;2.35;;
54787;SDS011;59598;48.112;16.280;2023-02-03T00:27:41;3.42;;;2.50;;
54787;SDS011;59598;48.112;16.280;2023-02-03T00:30:15;2.35;;;2.00;;
54787;SDS011;59598;48.112;16.280;2023-02-03T00:32:46;4.82;;;1.85;;
54787;SDS011;59598;48.112;16.280;2023-02-03T00:35:19;2.22;;;2.03;;
54787;SDS011;59598;48.112;16.280;2023-02-03T00:37:56;1.88;;;1.67;;
54787;SDS011;59598;48.112;16.280;2023-02-03T00:40:27;3.85;;;2.15;;
54787;SDS011;59598;48.112;16.280;2023-02-03T00:42:59;2.40;;;1.75;;
54787;SDS011;59598;48.112;16.280;2023-02-03T00:45:30;1.95;;;1.75;;
54787;SDS011;59598;48.112;16.280;2023-02-03T00:48:01;1.60;;;1.50;;
54787;SDS011;59598;48.112;16.280;2023-02-03T00:50:36;4.57;;;1.90;;
54787;SDS011;59598;48.112;16.280;2023-02-03T00:53:07;2.15;;;1.92;;
54787;SDS011;59598;48.112;16.280;2023-02-03T00:55:38;2.28;;;2.00;;
54787;SDS011;59598;48.112;16.280;2023-02-03T00:58:12;1.70;;;1.60;;
54787;SDS011;59598;48.112;16.280;2023-02-03T01:03:27;3.73;;;1.73;;
54787;SDS011;59598;48.112;16.280;2023-02-03T01:06:14;2.22;;;2.00;;
54787;SDS011;59598;48.112;16.280;2023-02-03T01:08:48;2.45;;;1.90;;
54787;SDS011;59598;48.112;16.280;2023-02-03T01:11:21;2.10;;;1.90;;
54787;SDS011;59598;48.112;16.280;2023-02-03T01:13:57;2.63;;;2.35;;
54787;SDS011;59598;48.112;16.280;2023-02-03T01:16:33;2.08;;;1.90;;
54787;SDS011;59598;48.112;16.280;2023-02-03T01:19:07;1.80;;;1.67;;
54787;SDS011;59598;48.112;16.280;2023-02-03T01:21:40;1.80;;;1.52;;
54787;SDS011;59598;48.112;16.280;2023-02-03T01:24:12;1.55;;;1.45;;
54787;SDS011;59598;48.112;16.280;2023-02-03T01:26:44;3.63;;;1.85;;
54787;SDS011;59598;48.112;16.280;2023-02-03T01:31:49;1.92;;;1.73;;
54787;SDS011;59598;48.112;16.280;2023-02-03T01:34:22;2.40;;;1.38;;
54787;SDS011;59598;48.112;16.280;2023-02-03T01:36:53;1.10;;;1.00;;
54787;SDS011;59598;48.112;16.280;2023-02-03T01:39:25;2.72;;;1.92;;
54787;SDS011;59598;48.112;16.280;2023-02-03T01:41:56;3.58;;;1.75;;
54787;SDS011;59598;48.112;16.280;2023-02-03T01:44:33;1.40;;;1.30;;
54787;SDS011;59598;48.112;16.280;2023-02-03T01:50:48;1.30;;;1.17;;
54787;SDS011;59598;48.112;16.280;2023-02-03T01:53:11;1.35;;;1.08;;
54787;SDS011;59598;48.112;16.280;2023-02-03T01:55:53;1.35;;;1.25;;
54787;SDS011;59598;48.112;16.280;2023-02-03T01:58:27;1.27;;;1.17;;
54787;SDS011;59598;48.112;16.280;2023-02-03T02:01:01;1.02;;;1.00;;
54787;SDS011;59598;48.112;16.280;2023-02-03T02:03:36;1.00;;;1.00;;
54787;SDS011;59598;48.112;16.280;2023-02-03T02:06:18;1.58;;;1.10;;
54787;SDS011;59598;48.112;16.280;2023-02-03T02:08:51;1.35;;;1.02;;
54787;SDS011;59598;48.112;16.280;2023-02-03T02:11:23;1.33;;;1.00;;
54787;SDS011;59598;48.112;16.280;2023-02-03T02:13:57;2.28;;;0.60;;
54787;SDS011;59598;48.112;16.280;2023-02-03T02:39:22;3.10;;;0.95;;
54787;SDS011;59598;48.112;16.280;2023-02-03T02:41:55;0.70;;;0.70;;
54787;SDS011;59598;48.112;16.280;2023-02-03T02:44:40;0.70;;;0.70;;
54787;SDS011;59598;48.112;16.280;2023-02-03T02:47:21;1.67;;;0.73;;
54787;SDS011;59598;48.112;16.280;2023-02-03T02:50:04;1.02;;;0.90;;
54787;SDS011;59598;48.112;16.280;2023-02-03T02:52:56;1.27;;;1.00;;
54787;SDS011;59598;48.112;16.280;2023-02-03T02:55:29;1.67;;;0.80;;
54787;SDS011;59598;48.112;16.280;2023-02-03T02:58:09;0.82;;;0.82;;
54787;SDS011;59598;48.112;16.280;2023-02-03T03:00:43;0.82;;;0.77;;
54787;SDS011;59598;48.112;16.280;2023-02-03T03:03:20;1.95;;;1.02;;
54787;SDS011;59598;48.112;16.280;2023-02-03T03:05:56;1.00;;;0.80;;
54787;SDS011;59598;48.112;16.280;2023-02-03T03:11:13;1.90;;;1.48;;
54787;SDS011;59598;48.112;16.280;2023-02-03T03:13:48;1.00;;;1.00;;
54787;SDS011;59598;48.112;16.280;2023-02-03T03:16:24;0.75;;;0.57;;
54787;SDS011;59598;48.112;16.280;2023-02-03T03:21:31;0.98;;;0.88;;
54787;SDS011;59598;48.112;16.280;2023-02-03T03:24:17;1.35;;;0.80;;
54787;SDS011;59598;48.112;16.280;2023-02-03T03:29:41;0.77;;;0.77;;
54787;SDS011;59598;48.112;16.280;2023-02-03T03:32:16;2.38;;;1.05;;
54787;SDS011;59598;48.112;16.280;2023-02-03T03:34:47;1.00;;;0.70;;
54787;SDS011;59598;48.112;16.280;2023-02-03T03:37:24;2.08;;;0.82;;
54787;SDS011;59598;48.112;16.280;2023-02-03T03:40:11;0.77;;;0.77;;
54787;SDS011;59598;48.112;16.280;2023-02-03T03:42:51;0.50;;;0.50;;
54787;SDS011;59598;48.112;16.280;2023-02-03T03:45:30;0.45;;;0.45;;
54787;SDS011;59598;48.112;16.280;2023-02-03T03:48:20;1.45;;;0.60;;
54787;SDS011;59598;48.112;16.280;2023-02-03T03:50:57;0.75;;;0.70;;
54787;SDS011;59598;48.112;16.280;2023-02-03T03:53:41;1.02;;;0.85;;
54787;SDS011;59598;48.112;16.280;2023-02-03T03:56:25;0.50;;;0.50;;
54787;SDS011;59598;48.112;16.280;2023-02-03T03:59:03;0.70;;;0.70;;
54787;SDS011;59598;48.112;16.280;2023-02-03T04:01:38;1.75;;;0.73;;
54787;SDS011;59598;48.112;16.280;2023-02-03T04:04:11;1.63;;;0.73;;
54787;SDS011;59598;48.112;16.280;2023-02-03T04:06:47;2.38;;;0.85;;
54787;SDS011;59598;48.112;16.280;2023-02-03T04:09:22;0.63;;;0.63;;
54787;SDS011;59598;48.112;16.280;2023-02-03T04:11:56;0.82;;;0.70;;
54787;SDS011;59598;48.112;16.280;2023-02-03T04:14:35;0.65;;;0.65;;
54787;SDS011;59598;48.112;16.280;2023-02-03T04:17:08;0.60;;;0.60;;
54787;SDS011;59598;48.112;16.280;2023-02-03T04:19:45;0.40;;;0.40;;
54787;SDS011;59598;48.112;16.280;2023-02-03T04:22:17;0.65;;;0.50;;
54787;SDS011;59598;48.112;16.280;2023-02-03T04:24:48;1.20;;;0.60;;
54787;SDS011;59598;48.112;16.280;2023-02-03T04:27:19;0.68;;;0.68;;
54787;SDS011;59598;48.112;16.280;2023-02-03T04:29:50;1.05;;;0.90;;
54787;SDS011;59598;48.112;16.280;2023-02-03T04:32:22;3.35;;;0.75;;
54787;SDS011;59598;48.112;16.280;2023-02-03T04:34:53;1.17;;;0.63;;
54787;SDS011;59598;48.112;16.280;2023-02-03T04:37:24;0.85;;;0.80;;
54787;SDS011;59598;48.112;16.280;2023-02-03T04:39:58;1.02;;;0.73;;
54787;SDS011;59598;48.112;16.280;2023-02-03T04:42:29;1.85;;;0.70;;
54787;SDS011;59598;48.112;16.280;2023-02-03T04:45:00;2.00;;;0.70;;
54787;SDS011;59598;48.112;16.280;2023-02-03T04:47:31;4.15;;;1.33;;
54787;SDS011;59598;48.112;16.280;2023-02-03T04:50:03;1.48;;;1.00;;
54787;SDS011;59598;48.112;16.280;2023-02-03T04:52:37;0.98;;;0.90;;
54787;SDS011;59598;48.112;16.280;2023-02-03T04:55:08;1.25;;;0.75;;
54787;SDS011;59598;48.112;16.280;2023-02-03T04:57:41;0.80;;;0.80;;
54787;SDS011;59598;48.112;16.280;2023-02-03T05:00:15;1.85;;;0.70;;
54787;SDS011;59598;48.112;16.280;2023-02-03T05:02:46;2.30;;;0.60;;
54787;SDS011;59598;48.112;16.280;2023-02-03T05:05:17;0.60;;;0.60;;
54787;SDS011;59598;48.112;16.280;2023-02-03T05:07:49;0.70;;;0.70;;
54787;SDS011;59598;48.112;16.280;2023-02-03T05:10:20;1.42;;;0.88;;
54787;SDS011;59598;48.112;16.280;2023-02-03T05:12:53;0.60;;;0.60;;
54787;SDS011;59598;48.112;16.280;2023-02-03T05:15:27;7.13;;;0.90;;
54787;SDS011;59598;48.112;16.280;2023-02-03T05:17:58;1.05;;;0.60;;
54787;SDS011;59598;48.112;16.280;2023-02-03T05:20:32;1.02;;;0.93;;
54787;SDS011;59598;48.112;16.280;2023-02-03T05:23:06;0.47;;;0.47;;
54787;SDS011;59598;48.112;16.280;2023-02-03T05:25:37;1.10;;;0.90;;
54787;SDS011;59598;48.112;16.280;2023-02-03T05:28:08;0.82;;;0.82;;
54787;SDS011;59598;48.112;16.280;2023-02-03T05:30:39;0.60;;;0.60;;
54787;SDS011;59598;48.112;16.280;2023-02-03T05:33:13;2.42;;;0.93;;
54787;SDS011;59598;48.112;16.280;2023-02-03T05:35:46;0.50;;;0.50;;
54787;SDS011;59598;48.112;16.280;2023-02-03T05:38:18;0.60;;;0.60;;
54787;SDS011;59598;48.112;16.280;2023-02-03T05:40:51;0.60;;;0.60;;
54787;SDS011;59598;48.112;16.280;2023-02-03T05:43:44;0.50;;;0.50;;
54787;SDS011;59598;48.112;16.280;2023-02-03T05:46:19;0.50;;;0.50;;
54787;SDS011;59598;48.112;16.280;2023-02-03T05:48:50;0.93;;;0.90;;
54787;SDS011;59598;48.112;16.280;2023-02-03T05:51:22;2.67;;;1.00;;
54787;SDS011;59598;48.112;16.280;2023-02-03T05:53:54;0.50;;;0.50;;
54787;SDS011;59598;48.112;16.280;2023-02-03T05:56:25;0.60;;;0.60;;
54787;SDS011;59598;48.112;16.280;2023-02-03T05:58:56;1.90;;;1.08;;
54787;SDS011;59598;48.112;16.280;2023-02-03T06:01:28;1.10;;;0.50;;
54787;SDS011;59598;48.112;16.280;2023-02-03T06:04:02;0.50;;;0.50;;
54787;SDS011;59598;48.112;16.280;2023-02-03T06:06:34;0.50;;;0.50;;
54787;SDS011;59598;48.112;16.280;2023-02-03T06:09:06;6.32;;;0.70;;
54787;SDS011;59598;48.112;16.280;2023-02-03T06:11:40;0.43;;;0.40;;
54787;SDS011;59598;48.112;16.280;2023-02-03T06:14:15;0.40;;;0.40;;
54787;SDS011;59598;48.112;16.280;2023-02-03T06:16:46;0.50;;;0.50;;
54787;SDS011;59598;48.112;16.280;2023-02-03T06:21:54;0.65;;;0.63;;
54787;SDS011;59598;48.112;16.280;2023-02-03T06:24:25;0.57;;;0.57;;
54787;SDS011;59598;48.112;16.280;2023-02-03T06:26:59;1.67;;;0.55;;
54787;SDS011;59598;48.112;16.280;2023-02-03T06:29:33;0.63;;;0.63;;
54787;SDS011;59598;48.112;16.280;2023-02-03T06:32:06;0.60;;;0.60;;
54787;SDS011;59598;48.112;16.280;2023-02-03T06:34:43;0.73;;;0.73;;
54787;SDS011;59598;48.112;16.280;2023-02-03T06:37:14;0.52;;;0.52;;
54787;SDS011;59598;48.112;16.280;2023-02-03T06:39:46;0.80;;;0.80;;
54787;SDS011;59598;48.112;16.280;2023-02-03T06:42:17;0.70;;;0.70;;
54787;SDS011;59598;48.112;16.280;2023-02-03T06:44:49;0.55;;;0.55;;
54787;SDS011;59598;48.112;16.280;2023-02-03T06:47:25;0.77;;;0.77;;
54787;SDS011;59598;48.112;16.280;2023-02-03T06:49:56;0.60;;;0.60;;
54787;SDS011;59598;48.112;16.280;2023-02-03T06:52:28;0.60;;;0.60;;
54787;SDS011;59598;48.112;16.280;2023-02-03T06:54:59;1.27;;;1.00;;
54787;SDS011;59598;48.112;16.280;2023-02-03T06:57:30;0.70;;;0.70;;
54787;SDS011;59598;48.112;16.280;2023-02-03T07:00:02;0.80;;;0.80;;
54787;SDS011;59598;48.112;16.280;2023-02-03T07:02:35;0.70;;;0.70;;
54787;SDS011;59598;48.112;16.280;2023-02-03T07:05:07;0.65;;;0.65;;
54787;SDS011;59598;48.112;16.280;2023-02-03T07:07:38;0.75;;;0.70;;
54787;SDS011;59598;48.112;16.280;2023-02-03T07:12:44;0.68;;;0.68;;
54787;SDS011;59598;48.112;16.280;2023-02-03T07:15:18;0.85;;;0.85;;
54787;SDS011;59598;48.112;16.280;2023-02-03T07:17:54;0.85;;;0.85;;
54787;SDS011;59598;48.112;16.280;2023-02-03T07:20:26;1.13;;;1.13;;
54787;SDS011;59598;48.112;16.280;2023-02-03T07:22:58;1.65;;;0.90;;
54787;SDS011;59598;48.112;16.280;2023-02-03T07:25:29;0.80;;;0.80;;
54787;SDS011;59598;48.112;16.280;2023-02-03T07:28:01;1.15;;;1.00;;
54787;SDS011;59598;48.112;16.280;2023-02-03T07:30:32;0.70;;;0.70;;
54787;SDS011;59598;48.112;16.280;2023-02-03T07:33:05;1.90;;;0.88;;
54787;SDS011;59598;48.112;16.280;2023-02-03T07:35:37;0.85;;;0.80;;
54787;SDS011;59598;48.112;16.280;2023-02-03T07:38:13;2.13;;;1.05;;
54787;SDS011;59598;48.112;16.280;2023-02-03T07:40:44;1.42;;;1.00;;
54787;SDS011;59598;48.112;16.280;2023-02-03T07:43:15;2.20;;;1.10;;
54787;SDS011;59598;48.112;16.280;2023-02-03T07:45:46;0.98;;;0.98;;
54787;SDS011;59598;48.112;16.280;2023-02-03T07:48:20;1.50;;;1.27;;
54787;SDS011;59598;48.112;16.280;2023-02-03T07:50:51;1.45;;;1.35;;
54787;SDS011;59598;48.112;16.280;2023-02-03T07:53:23;1.88;;;1.30;;
54787;SDS011;59598;48.112;16.280;2023-02-03T07:55:57;2.47;;;1.50;;
54787;SDS011;59598;48.112;16.280;2023-02-03T07:58:30;1.08;;;1.00;;
54787;SDS011;59598;48.112;16.280;2023-02-03T08:01:08;1.33;;;1.17;;
54787;SDS011;59598;48.112;16.280;2023-02-03T08:03:41;1.30;;;0.98;;
54787;SDS011;59598;48.112;16.280;2023-02-03T08:06:12;1.27;;;1.17;;
54787;SDS011;59598;48.112;16.280;2023-02-03T08:08:44;1.75;;;1.27;;
54787;SDS011;59598;48.112;16.280;2023-02-03T08:11:15;0.88;;;0.88;;
54787;SDS011;59598;48.112;16.280;2023-02-03T08:13:48;4.95;;;1.20;;
54787;SDS011;59598;48.112;16.280;2023-02-03T08:16:21;1.13;;;0.90;;
54787;SDS011;59598;48.112;16.280;2023-02-03T08:18:55;1.85;;;1.33;;
54787;SDS011;59598;48.112;16.280;2023-02-03T08:21:29;1.00;;;0.90;;
54787;SDS011;59598;48.112;16.280;2023-02-03T08:24:00;1.50;;;1.40;;
54787;SDS011;59598;48.112;16.280;2023-02-03T08:26:31;1.15;;;0.90;;
54787;SDS011;59598;48.112;16.280;2023-02-03T08:29:03;0.88;;;0.88;;
54787;SDS011;59598;48.112;16.280;2023-02-03T08:34:09;0.80;;;0.80;;
54787;SDS011;59598;48.112;16.280;2023-02-03T08:36:40;1.30;;;1.20;;
54787;SDS011;59598;48.112;16.280;2023-02-03T08:39:13;2.85;;;1.15;;
54787;SDS011;59598;48.112;16.280;2023-02-03T08:41:46;1.07;;;1.00;;
54787;SDS011;59598;48.112;16.280;2023-02-03T08:44:20;1.88;;;1.40;;
54787;SDS011;59598;48.112;16.280;2023-02-03T08:46:52;1.15;;;1.15;;
54787;SDS011;59598;48.112;16.280;2023-02-03T08:49:24;0.90;;;0.90;;
54787;SDS011;59598;48.112;16.280;2023-02-03T08:51:57;0.85;;;0.70;;
54787;SDS011;59598;48.112;16.280;2023-02-03T08:54:28;1.85;;;1.00;;
54787;SDS011;59598;48.112;16.280;2023-02-03T08:57:00;2.42;;;1.30;;
54787;SDS011;59598;48.112;16.280;2023-02-03T08:59:31;1.25;;;1.13;;
54787;SDS011;59598;48.112;16.280;2023-02-03T09:02:10;1.20;;;1.10;;
54787;SDS011;59598;48.112;16.280;2023-02-03T09:04:47;1.00;;;1.00;;
54787;SDS011;59598;48.112;16.280;2023-02-03T09:07:19;1.30;;;1.20;;
54787;SDS011;59598;48.112;16.280;2023-02-03T09:09:52;1.20;;;1.10;;
54787;SDS011;59598;48.112;16.280;2023-02-03T09:12:24;1.30;;;1.15;;
54787;SDS011;59598;48.112;16.280;2023-02-03T09:14:57;3.77;;;1.03;;
54787;SDS011;59598;48.112;16.280;2023-02-03T09:17:29;0.95;;;0.88;;
54787;SDS011;59598;48.112;16.280;2023-02-03T09:20:03;0.75;;;0.75;;
54787;SDS011;59598;48.112;16.280;2023-02-03T09:22:35;2.10;;;1.00;;
54787;SDS011;59598;48.112;16.280;2023-02-03T09:25:06;2.13;;;1.00;;
54787;SDS011;59598;48.112;16.280;2023-02-03T09:27:37;0.80;;;0.80;;
54787;SDS011;59598;48.112;16.280;2023-02-03T09:30:09;0.80;;;0.80;;
54787;SDS011;59598;48.112;16.280;2023-02-03T09:32:40;0.70;;;0.70;;
54787;SDS011;59598;48.112;16.280;2023-02-03T09:35:12;1.08;;;1.00;;
54787;SDS011;59598;48.112;16.280;2023-02-03T09:37:43;1.02;;;0.98;;
54787;SDS011;59598;48.112;16.280;2023-02-03T09:40:25;0.85;;;0.70;;
54787;SDS011;59598;48.112;16.280;2023-02-03T09:46:20;0.70;;;0.70;;
54787;SDS011;59598;48.112;16.280;2023-02-03T09:48:55;0.60;;;0.60;;
54787;SDS011;59598;48.112;16.280;2023-02-03T09:51:33;0.98;;;0.57;;
54787;SDS011;59598;48.112;16.280;2023-02-03T09:54:18;1.10;;;1.10;;
54787;SDS011;59598;48.112;16.280;2023-02-03T09:56:57;1.17;;;0.98;;
54787;SDS011;59598;48.112;16.280;2023-02-03T09:59:30;0.90;;;0.90;;
54787;SDS011;59598;48.112;16.280;2023-02-03T10:02:14;0.90;;;0.70;;
54787;SDS011;59598;48.112;16.280;2023-02-03T10:08:05;0.57;;;0.57;;
54787;SDS011;59598;48.112;16.280;2023-02-03T10:16:53;0.75;;;0.75;;
54787;SDS011;59598;48.112;16.280;2023-02-03T10:22:33;0.70;;;0.70;;
54787;SDS011;59598;48.112;16.280;2023-02-03T10:25:19;0.70;;;0.70;;
54787;SDS011;59598;48.112;16.280;2023-02-03T10:28:14;0.70;;;0.70;;
54787;SDS011;59598;48.112;16.280;2023-02-03T10:30:55;1.35;;;0.95;;
54787;SDS011;59598;48.112;16.280;2023-02-03T10:33:30;4.82;;;2.72;;
54787;SDS011;59598;48.112;16.280;2023-02-03T10:38:45;1.65;;;1.55;;
54787;SDS011;59598;48.112;16.280;2023-02-03T10:41:19;4.65;;;0.80;;
54787;SDS011;59598;48.112;16.280;2023-02-03T10:43:53;0.90;;;0.90;;
54787;SDS011;59598;48.112;16.280;2023-02-03T10:46:26;0.75;;;0.75;;
54787;SDS011;59598;48.112;16.280;2023-02-03T10:49:00;0.93;;;0.90;;
54787;SDS011;59598;48.112;16.280;2023-02-03T10:51:35;0.65;;;0.65;;
54787;SDS011;59598;48.112;16.280;2023-02-03T10:57:05;2.15;;;0.70;;
54787;SDS011;59598;48.112;16.280;2023-02-03T10:59:46;0.77;;;0.70;;
54787;SDS011;59598;48.112;16.280;2023-02-03T11:02:24;0.70;;;0.70;;
54787;SDS011;59598;48.112;16.280;2023-02-03T11:07:52;0.90;;;0.90;;
54787;SDS011;59598;48.112;16.280;2023-02-03T11:13:22;0.70;;;0.70;;
54787;SDS011;59598;48.112;16.280;2023-02-03T11:15:55;0.82;;;0.70;;
54787;SDS011;59598;48.112;16.280;2023-02-03T11:18:42;1.35;;;0.88;;
54787;SDS011;59598;48.112;16.280;2023-02-03T11:22:00;0.55;;;0.55;;
54787;SDS011;59598;48.112;16.280;2023-02-03T11:24:12;1.02;;;0.90;;
54787;SDS011;59598;48.112;16.280;2023-02-03T11:29:37;0.63;;;0.63;;
54787;SDS011;59598;48.112;16.280;2023-02-03T11:32:31;1.27;;;1.05;;
54787;SDS011;59598;48.112;16.280;2023-02-03T11:37:54;0.60;;;0.60;;
54787;SDS011;59598;48.112;16.280;2023-02-03T11:40:28;1.25;;;0.80;;
54787;SDS011;59598;48.112;16.280;2023-02-03T11:43:14;0.73;;;0.73;;
54787;SDS011;59598;48.112;16.280;2023-02-03T11:45:52;0.80;;;0.68;;
54787;SDS011;59598;48.112;16.280;2023-02-03T11:48:36;0.70;;;0.70;;
54787;SDS011;59598;48.112;16.280;2023-02-03T11:51:27;0.60;;;0.60;;
54787;SDS011;59598;48.112;16.280;2023-02-03T11:59:52;0.70;;;0.70;;
54787;SDS011;59598;48.112;16.280;2023-02-03T12:14:47;0.88;;;0.80;;
54787;SDS011;59598;48.112;16.280;2023-02-03T12:21:03;0.60;;;0.60;;
54787;SDS011;59598;48.112;16.280;2023-02-03T12:23:29;0.85;;;0.80;;
54787;SDS011;59598;48.112;16.280;2023-02-03T12:26:34;0.80;;;0.80;;
54787;SDS011;59598;48.112;16.280;2023-02-03T12:29:46;0.95;;;0.80;;
54787;SDS011;59598;48.112;16.280;2023-02-03T12:46:41;0.70;;;0.70;;
54787;SDS011;59598;48.112;16.280;2023-02-03T12:51:52;0.60;;;0.60;;
54787;SDS011;59598;48.112;16.280;2023-02-03T12:57:40;0.95;;;0.88;;
54787;SDS011;59598;48.112;16.280;2023-02-03T13:00:28;5.25;;;0.98;;
54787;SDS011;59598;48.112;16.280;2023-02-03T13:08:43;0.77;;;0.77;;
54787;SDS011;59598;48.112;16.280;2023-02-03T13:12:30;1.30;;;0.60;;
54787;SDS011;59598;48.112;16.280;2023-02-03T13:14:38;0.70;;;0.70;;
54787;SDS011;59598;48.112;16.280;2023-02-03T13:17:17;0.60;;;0.60;;
54787;SDS011;59598;48.112;16.280;2023-02-03T13:20:04;0.77;;;0.77;;
54787;SDS011;59598;48.112;16.280;2023-02-03T13:22:51;0.50;;;0.50;;
54787;SDS011;59598;48.112;16.280;2023-02-03T13:33:48;0.70;;;0.70;;
54787;SDS011;59598;48.112;16.280;2023-02-03T13:39:27;0.50;;;0.50;;
54787;SDS011;59598;48.112;16.280;2023-02-03T13:44:43;0.88;;;0.88;;
54787;SDS011;59598;48.112;16.280;2023-02-03T13:47:24;0.70;;;0.70;;
54787;SDS011;59598;48.112;16.280;2023-02-03T13:50:01;0.52;;;0.52;;
54787;SDS011;59598;48.112;16.280;2023-02-03T13:52:37;0.63;;;0.63;;
54787;SDS011;59598;48.112;16.280;2023-02-03T13:55:51;1.23;;;0.70;;
54787;SDS011;59598;48.112;16.280;2023-02-03T13:58:47;0.93;;;0.70;;
54787;SDS011;59598;48.112;16.280;2023-02-03T14:04:00;1.42;;;0.93;;
54787;SDS011;59598;48.112;16.280;2023-02-03T14:09:21;0.70;;;0.70;;
54787;SDS011;59598;48.112;16.280;2023-02-03T14:22:57;0.88;;;0.88;;
54787;SDS011;59598;48.112;16.280;2023-02-03T14:25:45;1.38;;;0.98;;
54787;SDS011;59598;48.112;16.280;2023-02-03T14:28:22;0.60;;;0.60;;
54787;SDS011;59598;48.112;16.280;2023-02-03T14:31:12;1.40;;;0.90;;
54787;SDS011;59598;48.112;16.280;2023-02-03T14:33:52;0.80;;;0.73;;
54787;SDS011;59598;48.112;16.280;2023-02-03T14:36:30;0.80;;;0.80;;
54787;SDS011;59598;48.112;16.280;2023-02-03T14:58:47;0.73;;;0.73;;
54787;SDS011;59598;48.112;16.280;2023-02-03T15:06:42;1.20;;;1.10;;
54787;SDS011;59598;48.112;16.280;2023-02-03T15:11:59;0.90;;;0.80;;
54787;SDS011;59598;48.112;16.280;2023-02-03T15:14:30;2.83;;;1.05;;
54787;SDS011;59598;48.112;16.280;2023-02-03T15:17:09;0.68;;;0.60;;
54787;SDS011;59598;48.112;16.280;2023-02-03T15:19:56;0.85;;;0.85;;
54787;SDS011;59598;48.112;16.280;2023-02-03T15:22:28;1.05;;;0.93;;
54787;SDS011;59598;48.112;16.280;2023-02-03T15:27:33;0.70;;;0.70;;
54787;SDS011;59598;48.112;16.280;2023-02-03T15:30:15;1.45;;;0.70;;
54787;SDS011;59598;48.112;16.280;2023-02-03T15:33:06;0.88;;;0.75;;
54787;SDS011;59598;48.112;16.280;2023-02-03T15:35:43;0.98;;;0.90;;
54787;SDS011;59598;48.112;16.280;2023-02-03T15:38:40;0.70;;;0.70;;
54787;SDS011;59598;48.112;16.280;2023-02-03T15:41:16;0.60;;;0.60;;
54787;SDS011;59598;48.112;16.280;2023-02-03T15:43:57;3.60;;;0.98;;
54787;SDS011;59598;48.112;16.280;2023-02-03T15:49:13;0.90;;;0.88;;
54787;SDS011;59598;48.112;16.280;2023-02-03T15:54:35;0.85;;;0.85;;
54787;SDS011;59598;48.112;16.280;2023-02-03T15:57:16;0.70;;;0.70;;
54787;SDS011;59598;48.112;16.280;2023-02-03T15:59:59;0.77;;;0.77;;
54787;SDS011;59598;48.112;16.280;2023-02-03T16:02:42;0.98;;;0.90;;
54787;SDS011;59598;48.112;16.280;2023-02-03T16:05:20;0.65;;;0.65;;
54787;SDS011;59598;48.112;16.280;2023-02-03T16:11:00;0.88;;;0.88;;
54787;SDS011;59598;48.112;16.280;2023-02-03T16:13:32;0.90;;;0.80;;
54787;SDS011;59598;48.112;16.280;2023-02-03T16:16:06;1.77;;;1.13;;
54787;SDS011;59598;48.112;16.280;2023-02-03T16:18:54;1.00;;;1.00;;
54787;SDS011;59598;48.112;16.280;2023-02-03T16:21:28;0.80;;;0.70;;
54787;SDS011;59598;48.112;16.280;2023-02-03T16:24:05;0.98;;;0.85;;
54787;SDS011;59598;48.112;16.280;2023-02-03T16:27:20;0.60;;;0.60;;
54787;SDS011;59598;48.112;16.280;2023-02-03T16:32:59;1.00;;;1.00;;
54787;SDS011;59598;48.112;16.280;2023-02-03T16:36:08;2.50;;;1.02;;
54787;SDS011;59598;48.112;16.280;2023-02-03T16:39:01;0.90;;;0.90;;
54787;SDS011;59598;48.112;16.280;2023-02-03T16:41:58;0.70;;;0.70;;
54787;SDS011;59598;48.112;16.280;2023-02-03T16:44:49;1.00;;;1.00;;
54787;SDS011;59598;48.112;16.280;2023-02-03T16:47:40;1.42;;;0.70;;
54787;SDS011;59598;48.112;16.280;2023-02-03T16:50:32;0.85;;;0.85;;
54787;SDS011;59598;48.112;16.280;2023-02-03T16:53:25;1.67;;;1.13;;
54787;SDS011;59598;48.112;16.280;2023-02-03T16:56:01;0.80;;;0.80;;
54787;SDS011;59598;48.112;16.280;2023-02-03T16:58:34;1.67;;;1.05;;
54787;SDS011;59598;48.112;16.280;2023-02-03T17:01:06;1.77;;;1.20;;
54787;SDS011;59598;48.112;16.280;2023-02-03T17:03:41;0.98;;;0.98;;
54787;SDS011;59598;48.112;16.280;2023-02-03T17:06:16;1.73;;;0.90;;
54787;SDS011;59598;48.112;16.280;2023-02-03T17:08:47;1.10;;;1.10;;
54787;SDS011;59598;48.112;16.280;2023-02-03T17:11:19;1.65;;;0.98;;
54787;SDS011;59598;48.112;16.280;2023-02-03T17:13:56;0.90;;;0.90;;
54787;SDS011;59598;48.112;16.280;2023-02-03T17:16:32;1.75;;;1.15;;
54787;SDS011;59598;48.112;16.280;2023-02-03T17:19:04;1.10;;;0.98;;
54787;SDS011;59598;48.112;16.280;2023-02-03T17:21:36;1.10;;;1.08;;
54787;SDS011;59598;48.112;16.280;2023-02-03T17:24:07;1.75;;;0.98;;
54787;SDS011;59598;48.112;16.280;2023-02-03T17:26:39;1.58;;;0.70;;
54787;SDS011;59598;48.112;16.280;2023-02-03T17:29:17;1.17;;;1.08;;
54787;SDS011;59598;48.112;16.280;2023-02-03T17:31:51;1.10;;;1.10;;
54787;SDS011;59598;48.112;16.280;2023-02-03T17:34:22;1.10;;;1.10;;
54787;SDS011;59598;48.112;16.280;2023-02-03T17:36:55;0.90;;;0.88;;
54787;SDS011;59598;48.112;16.280;2023-02-03T17:39:27;2.65;;;1.20;;
54787;SDS011;59598;48.112;16.280;2023-02-03T17:41:58;1.38;;;1.13;;
54787;SDS011;59598;48.112;16.280;2023-02-03T17:44:29;1.08;;;1.00;;
54787;SDS011;59598;48.112;16.280;2023-02-03T17:47:00;4.18;;;1.08;;
54787;SDS011;59598;48.112;16.280;2023-02-03T17:49:32;0.80;;;0.80;;
54787;SDS011;59598;48.112;16.280;2023-02-03T17:52:06;0.60;;;0.60;;
54787;SDS011;59598;48.112;16.280;2023-02-03T17:54:37;0.88;;;0.88;;
54787;SDS011;59598;48.112;16.280;2023-02-03T17:57:08;0.85;;;0.80;;
54787;SDS011;59598;48.112;16.280;2023-02-03T17:59:39;0.77;;;0.77;;
54787;SDS011;59598;48.112;16.280;2023-02-03T18:02:11;0.80;;;0.80;;
54787;SDS011;59598;48.112;16.280;2023-02-03T18:04:42;0.77;;;0.77;;
54787;SDS011;59598;48.112;16.280;2023-02-03T18:07:14;0.82;;;0.80;;
54787;SDS011;59598;48.112;16.280;2023-02-03T18:09:45;1.60;;;1.50;;
54787;SDS011;59598;48.112;16.280;2023-02-03T18:12:19;2.35;;;1.20;;
54787;SDS011;59598;48.112;16.280;2023-02-03T18:14:50;3.03;;;1.40;;
54787;SDS011;59598;48.112;16.280;2023-02-03T18:17:23;2.60;;;1.13;;
54787;SDS011;59598;48.112;16.280;2023-02-03T18:19:57;1.50;;;1.40;;
54787;SDS011;59598;48.112;16.280;2023-02-03T18:22:33;4.00;;;1.80;;
54787;SDS011;59598;48.112;16.280;2023-02-03T18:25:06;3.83;;;1.70;;
54787;SDS011;59598;48.112;16.280;2023-02-03T18:27:40;4.22;;;1.80;;
54787;SDS011;59598;48.112;16.280;2023-02-03T18:30:11;2.40;;;1.60;;
54787;SDS011;59598;48.112;16.280;2023-02-03T18:32:44;2.65;;;1.50;;
54787;SDS011;59598;48.112;16.280;2023-02-03T18:35:19;1.40;;;1.30;;
54787;SDS011;59598;48.112;16.280;2023-02-03T18:37:55;1.27;;;1.17;;
54787;SDS011;59598;48.112;16.280;2023-02-03T18:40:28;1.30;;;1.20;;
54787;SDS011;59598;48.112;16.280;2023-02-03T18:42:59;3.72;;;1.42;;
54787;SDS011;59598;48.112;16.280;2023-02-03T18:45:32;1.90;;;1.40;;
54787;SDS011;59598;48.112;16.280;2023-02-03T18:48:06;1.70;;;1.60;;